»·PEaware :: N1545D KCVO-KPDX

N1545D :: KCVO-KPDX

FLIGHT INFORMATION

Flight Status: Arrived
Operator: Privately registered:
United States
More flights under this callsign
Pilot: Alec D. (17934)
Aircraft: CESSNA 172 SKYHAWK
(C172)
More flights by this aircraft type
Origin: KCVO Corvallis Mun
United States
Destination: KPDX Portland Intl
United States
More flights between these airports :: More routes between these airports
Route: CVO V495 UBG
File this flight plan on PilotEdge
Remarks:
Altitude:
(Current/Filed)
5,000ft
Speed:
(Current/Filed)
105kts
Departed: 10-Feb-19 12:08 PM
Arrived: 10-Feb-19 12:53 PM
Distance/Time
Traveled:
72nm/0:44
Distance/Time
To Go:
Arrived

Flight Plot

Page will automatically refresh every two minutes.

Flight plan parsing failed; only flown route is shown


Map Options




Map Legend


Flown Route
Filed Route
Departure Airport
Arrival Airport
Navaid (VOR, NDB)
Fix

Horizontal Profiles

Position Reports

Time Latitude Longitude Heading Altitude Ground
Speed
10-Feb-19 11:48 44.502869 -123.286480 289 249ft 0kts
10-Feb-19 11:49 44.502869 -123.286480 289 249ft 0kts
10-Feb-19 11:50 44.502870 -123.286482 289 249ft 0kts
10-Feb-19 11:51 44.502872 -123.286492 289 249ft 0kts
10-Feb-19 11:52 44.502875 -123.286503 289 249ft 0kts
10-Feb-19 11:53 44.502878 -123.286514 289 249ft 0kts
10-Feb-19 11:54 44.502881 -123.286524 289 249ft 0kts
10-Feb-19 11:55 44.502883 -123.286534 289 249ft 0kts
10-Feb-19 11:57 44.502886 -123.286544 289 249ft 0kts
10-Feb-19 11:58 44.502888 -123.286554 289 249ft 0kts
10-Feb-19 11:59 44.502890 -123.286561 289 249ft 0kts
10-Feb-19 12:00 44.502892 -123.286569 289 249ft 0kts
10-Feb-19 12:01 44.502705 -123.286010 74 249ft 3kts
10-Feb-19 12:02 44.502331 -123.288021 291 249ft 15kts
10-Feb-19 12:03 44.502903 -123.289996 273 249ft 0kts
10-Feb-19 12:04 44.502904 -123.290013 273 249ft 0kts
10-Feb-19 12:05 44.502904 -123.290023 273 249ft 0kts
10-Feb-19 12:06 44.502905 -123.290033 273 249ft 0kts
10-Feb-19 12:07 44.502967 -123.290364 287 249ft 5kts
10-Feb-19 12:08 44.494217 -123.293001 190 496ft 68kts
10-Feb-19 12:09 44.474313 -123.297885 187 1332ft 74kts
10-Feb-19 12:10 44.467394 -123.273375 66 2103ft 91kts
10-Feb-19 12:11 44.489212 -123.271236 318 2914ft 85kts
10-Feb-19 12:11 44.506179 -123.286921 326 3508ft 88kts
10-Feb-19 12:13 44.534829 -123.280506 11 4356ft 87kts
10-Feb-19 12:14 44.557779 -123.269706 13 4969ft 96kts
10-Feb-19 12:15 44.586870 -123.256555 11 4972ft 115kts
10-Feb-19 12:15 44.612341 -123.245847 11 4961ft 116kts
10-Feb-19 12:16 44.643166 -123.234256 9 5007ft 110kts
10-Feb-19 12:18 44.679023 -123.225009 0 4996ft 113kts
10-Feb-19 12:19 44.710200 -123.216334 10 4993ft 114kts
10-Feb-19 12:19 44.736106 -123.206958 11 4984ft 114kts
10-Feb-19 12:20 44.766949 -123.195612 11 4980ft 114kts
10-Feb-19 12:21 44.797802 -123.184216 11 4978ft 114kts
10-Feb-19 12:22 44.828742 -123.172840 11 4976ft 114kts
10-Feb-19 12:23 44.859655 -123.161787 10 4975ft 114kts
10-Feb-19 12:24 44.890580 -123.150461 11 4994ft 113kts
10-Feb-19 12:25 44.921236 -123.139164 11 5001ft 114kts
10-Feb-19 12:26 44.952053 -123.127787 11 5002ft 114kts
10-Feb-19 12:27 44.982989 -123.116353 11 5002ft 114kts
10-Feb-19 12:28 45.013878 -123.104924 11 5002ft 115kts
10-Feb-19 12:29 45.044905 -123.093431 11 5002ft 115kts
10-Feb-19 12:30 45.075782 -123.081981 11 5002ft 115kts
10-Feb-19 12:31 45.106813 -123.070461 11 5003ft 115kts
10-Feb-19 12:32 45.137736 -123.058968 11 5001ft 115kts
10-Feb-19 12:33 45.168630 -123.047473 11 5001ft 115kts
10-Feb-19 12:34 45.199660 -123.035914 11 5001ft 115kts
10-Feb-19 12:35 45.230620 -123.024368 11 5001ft 115kts
10-Feb-19 12:36 45.261667 -123.012776 11 5001ft 115kts
10-Feb-19 12:37 45.292793 -123.001138 11 4994ft 116kts
10-Feb-19 12:38 45.323955 -122.989469 11 4999ft 115kts
10-Feb-19 12:39 45.354465 -122.975580 39 4997ft 118kts
10-Feb-19 12:40 45.376624 -122.940836 46 4991ft 118kts
10-Feb-19 12:41 45.398411 -122.905855 46 4994ft 117kts
10-Feb-19 12:42 45.420125 -122.870938 46 4993ft 118kts
10-Feb-19 12:43 45.441913 -122.835855 46 4991ft 118kts
10-Feb-19 12:44 45.463717 -122.800705 47 4956ft 120kts
10-Feb-19 12:45 45.487659 -122.761727 48 4384ft 134kts
10-Feb-19 12:46 45.512045 -122.721351 49 3562ft 137kts
10-Feb-19 12:47 45.534177 -122.680774 54 2752ft 125kts
10-Feb-19 12:48 45.555663 -122.640118 53 1834ft 126kts
10-Feb-19 12:49 45.565610 -122.601730 120 1513ft 102kts
10-Feb-19 12:50 45.558963 -122.572931 44 1308ft 75kts
10-Feb-19 12:51 45.577226 -122.575491 298 303ft 70kts
10-Feb-19 12:52 45.583191 -122.590758 301 33ft 12kts
10-Feb-19 12:53 45.583998 -122.590781 28 33ft 0kts
10-Feb-19 12:54 45.585608 -122.593704 298 33ft 16kts
10-Feb-19 12:55 45.587601 -122.598786 298 33ft 14kts
10-Feb-19 12:56 45.589709 -122.604080 318 33ft 6kts
10-Feb-19 12:57 45.592359 -122.600726 46 33ft 16kts
10-Feb-19 12:58 45.593484 -122.596222 116 33ft 17kts
10-Feb-19 12:59 45.590601 -122.590224 121 33ft 20kts
10-Feb-19 13:00 45.588220 -122.584767 190 33ft 9kts
10-Feb-19 13:01 45.587506 -122.584869 120 33ft 0kts
10-Feb-19 13:02 45.587506 -122.584868 120 33ft 0kts
10-Feb-19 13:03 45.587506 -122.584868 120 33ft 0kts
10-Feb-19 13:04 45.587506 -122.584868 120 33ft 0kts
10-Feb-19 13:05 45.587506 -122.584868 120 33ft 0kts
10-Feb-19 13:06 45.587506 -122.584868 120 33ft 0kts

Navigation Log

Ident Type
Flight plan parsing failed, navigation log unavailable